sensor_id;sensor_type;location;lat;lon;timestamp;pressure;altitude;pressure_sealevel;temperature;humidity
39555;BME280;25231;48.746;9.234;2022-11-14T00:00:40;96687.22;;;2.61;100.00
39555;BME280;25231;48.746;9.234;2022-11-14T00:03:07;96685.69;;;2.51;100.00
39555;BME280;25231;48.746;9.234;2022-11-14T00:05:38;96687.59;;;2.43;100.00
39555;BME280;25231;48.746;9.234;2022-11-14T00:08:04;96689.91;;;2.38;100.00
39555;BME280;25231;48.746;9.234;2022-11-14T00:10:30;96682.41;;;2.43;100.00
39555;BME280;25231;48.746;9.234;2022-11-14T00:12:55;96675.19;;;2.38;100.00
39555;BME280;25231;48.746;9.234;2022-11-14T00:15:20;96689.72;;;2.39;100.00
39555;BME280;25231;48.746;9.234;2022-11-14T00:17:45;96690.06;;;2.36;100.00
39555;BME280;25231;48.746;9.234;2022-11-14T00:20:11;96684.63;;;2.31;100.00
39555;BME280;25231;48.746;9.234;2022-11-14T00:22:37;96694.44;;;2.36;100.00
39555;BME280;25231;48.746;9.234;2022-11-14T00:25:03;96688.13;;;2.38;100.00
39555;BME280;25231;48.746;9.234;2022-11-14T00:27:28;96675.28;;;2.45;100.00
39555;BME280;25231;48.746;9.234;2022-11-14T00:29:54;96692.50;;;2.38;100.00
39555;BME280;25231;48.746;9.234;2022-11-14T00:32:19;96691.69;;;2.37;100.00
39555;BME280;25231;48.746;9.234;2022-11-14T00:34:47;96683.75;;;2.39;100.00
39555;BME280;25231;48.746;9.234;2022-11-14T00:37:12;96671.44;;;2.41;100.00
39555;BME280;25231;48.746;9.234;2022-11-14T00:39:37;96660.53;;;2.45;100.00
39555;BME280;25231;48.746;9.234;2022-11-14T00:42:03;96669.13;;;2.31;100.00
39555;BME280;25231;48.746;9.234;2022-11-14T00:44:28;96668.75;;;2.34;100.00
39555;BME280;25231;48.746;9.234;2022-11-14T00:46:53;96670.53;;;2.19;100.00
39555;BME280;25231;48.746;9.234;2022-11-14T00:49:19;96654.41;;;2.32;100.00
39555;BME280;25231;48.746;9.234;2022-11-14T00:51:44;96660.19;;;2.19;100.00
39555;BME280;25231;48.746;9.234;2022-11-14T00:54:10;96662.44;;;2.22;100.00
39555;BME280;25231;48.746;9.234;2022-11-14T00:56:35;96657.97;;;2.16;100.00
39555;BME280;25231;48.746;9.234;2022-11-14T00:59:00;96657.25;;;2.22;100.00
39555;BME280;25231;48.746;9.234;2022-11-14T01:01:26;96653.88;;;2.22;100.00
39555;BME280;25231;48.746;9.234;2022-11-14T01:03:51;96646.81;;;2.30;100.00
39555;BME280;25231;48.746;9.234;2022-11-14T01:06:18;96642.63;;;2.29;100.00
39555;BME280;25231;48.746;9.234;2022-11-14T01:08:43;96645.41;;;2.28;100.00
39555;BME280;25231;48.746;9.234;2022-11-14T01:11:11;96644.41;;;2.29;100.00
39555;BME280;25231;48.746;9.234;2022-11-14T01:13:36;96647.00;;;2.29;100.00
39555;BME280;25231;48.746;9.234;2022-11-14T01:16:02;96647.78;;;2.29;100.00
39555;BME280;25231;48.746;9.234;2022-11-14T01:18:28;96647.47;;;2.32;100.00
39555;BME280;25231;48.746;9.234;2022-11-14T01:20:53;96647.72;;;2.23;100.00
39555;BME280;25231;48.746;9.234;2022-11-14T01:23:18;96636.75;;;2.35;100.00
39555;BME280;25231;48.746;9.234;2022-11-14T01:25:44;96639.31;;;2.35;100.00
39555;BME280;25231;48.746;9.234;2022-11-14T01:28:11;96642.00;;;2.42;100.00
39555;BME280;25231;48.746;9.234;2022-11-14T01:30:37;96643.34;;;2.38;100.00
39555;BME280;25231;48.746;9.234;2022-11-14T01:33:03;96642.28;;;2.32;100.00
39555;BME280;25231;48.746;9.234;2022-11-14T01:35:32;96640.50;;;2.33;100.00
39555;BME280;25231;48.746;9.234;2022-11-14T01:37:58;96639.69;;;2.32;100.00
39555;BME280;25231;48.746;9.234;2022-11-14T01:40:24;96632.66;;;2.26;100.00
39555;BME280;25231;48.746;9.234;2022-11-14T01:46:02;96622.56;;;2.46;100.00
39555;BME280;25231;48.746;9.234;2022-11-14T01:48:38;96632.75;;;2.33;100.00
39555;BME280;25231;48.746;9.234;2022-11-14T01:51:19;96619.28;;;2.23;100.00
39555;BME280;25231;48.746;9.234;2022-11-14T01:53:47;96627.91;;;2.30;100.00
39555;BME280;25231;48.746;9.234;2022-11-14T01:56:16;96619.09;;;2.24;100.00
39555;BME280;25231;48.746;9.234;2022-11-14T01:58:47;96612.25;;;2.17;100.00
39555;BME280;25231;48.746;9.234;2022-11-14T02:01:13;96612.84;;;2.19;100.00
39555;BME280;25231;48.746;9.234;2022-11-14T02:03:40;96615.34;;;2.27;100.00
39555;BME280;25231;48.746;9.234;2022-11-14T02:06:08;96615.53;;;2.25;100.00
39555;BME280;25231;48.746;9.234;2022-11-14T02:08:35;96620.50;;;2.12;100.00
39555;BME280;25231;48.746;9.234;2022-11-14T02:11:01;96608.31;;;2.06;100.00
39555;BME280;25231;48.746;9.234;2022-11-14T02:13:26;96613.94;;;2.09;100.00
39555;BME280;25231;48.746;9.234;2022-11-14T02:15:51;96617.75;;;1.99;100.00
39555;BME280;25231;48.746;9.234;2022-11-14T02:18:17;96611.88;;;2.05;100.00
39555;BME280;25231;48.746;9.234;2022-11-14T02:20:42;96612.84;;;2.04;100.00
39555;BME280;25231;48.746;9.234;2022-11-14T02:23:11;96615.97;;;1.99;100.00
39555;BME280;25231;48.746;9.234;2022-11-14T02:25:38;96612.84;;;2.04;100.00
39555;BME280;25231;48.746;9.234;2022-11-14T02:28:06;96619.38;;;2.00;100.00
39555;BME280;25231;48.746;9.234;2022-11-14T02:30:33;96628.00;;;2.07;100.00
39555;BME280;25231;48.746;9.234;2022-11-14T02:32:59;96624.44;;;1.93;100.00
39555;BME280;25231;48.746;9.234;2022-11-14T02:35:24;96621.31;;;1.98;100.00
39555;BME280;25231;48.746;9.234;2022-11-14T02:37:49;96615.88;;;1.93;100.00
39555;BME280;25231;48.746;9.234;2022-11-14T02:40:15;96613.81;;;1.88;100.00
39555;BME280;25231;48.746;9.234;2022-11-14T02:42:40;96607.22;;;1.86;100.00
39555;BME280;25231;48.746;9.234;2022-11-14T02:45:06;96605.81;;;1.83;100.00
39555;BME280;25231;48.746;9.234;2022-11-14T02:47:32;96608.28;;;1.77;100.00
39555;BME280;25231;48.746;9.234;2022-11-14T02:49:57;96616.41;;;1.88;100.00
39555;BME280;25231;48.746;9.234;2022-11-14T02:52:23;96613.19;;;1.86;100.00
39555;BME280;25231;48.746;9.234;2022-11-14T02:54:48;96614.06;;;1.79;100.00
39555;BME280;25231;48.746;9.234;2022-11-14T02:57:13;96622.59;;;1.79;100.00
39555;BME280;25231;48.746;9.234;2022-11-14T02:59:39;96619.03;;;1.65;100.00
39555;BME280;25231;48.746;9.234;2022-11-14T03:02:04;96611.53;;;1.56;100.00
39555;BME280;25231;48.746;9.234;2022-11-14T03:04:29;96613.13;;;1.57;100.00
39555;BME280;25231;48.746;9.234;2022-11-14T03:06:54;96610.88;;;1.39;100.00
39555;BME280;25231;48.746;9.234;2022-11-14T03:09:20;96602.66;;;1.36;100.00
39555;BME280;25231;48.746;9.234;2022-11-14T03:11:45;96606.59;;;1.23;100.00
39555;BME280;25231;48.746;9.234;2022-11-14T03:14:11;96588.16;;;1.12;100.00
39555;BME280;25231;48.746;9.234;2022-11-14T03:16:36;96590.69;;;1.20;100.00
39555;BME280;25231;48.746;9.234;2022-11-14T03:19:01;96576.16;;;1.19;100.00
39555;BME280;25231;48.746;9.234;2022-11-14T03:21:27;96584.66;;;1.28;100.00
39555;BME280;25231;48.746;9.234;2022-11-14T03:23:52;96586.44;;;1.27;100.00
39555;BME280;25231;48.746;9.234;2022-11-14T03:26:18;96580.25;;;1.51;100.00
39555;BME280;25231;48.746;9.234;2022-11-14T03:28:43;96576.53;;;1.53;100.00
39555;BME280;25231;48.746;9.234;2022-11-14T03:31:10;96574.31;;;1.50;100.00
39555;BME280;25231;48.746;9.234;2022-11-14T03:33:36;96568.94;;;1.37;100.00
39555;BME280;25231;48.746;9.234;2022-11-14T03:36:03;96566.69;;;1.34;100.00
39555;BME280;25231;48.746;9.234;2022-11-14T03:38:28;96556.47;;;1.41;100.00
39555;BME280;25231;48.746;9.234;2022-11-14T03:40:56;96560.50;;;1.58;100.00
39555;BME280;25231;48.746;9.234;2022-11-14T03:43:22;96537.53;;;1.63;100.00
39555;BME280;25231;48.746;9.234;2022-11-14T03:45:47;96536.28;;;1.74;100.00
39555;BME280;25231;48.746;9.234;2022-11-14T03:48:13;96545.03;;;1.87;100.00
39555;BME280;25231;48.746;9.234;2022-11-14T03:50:39;96557.06;;;1.95;100.00
39555;BME280;25231;48.746;9.234;2022-11-14T03:53:04;96550.63;;;1.91;100.00
39555;BME280;25231;48.746;9.234;2022-11-14T03:55:30;96567.69;;;2.00;100.00
39555;BME280;25231;48.746;9.234;2022-11-14T03:57:55;96576.75;;;1.96;100.00
39555;BME280;25231;48.746;9.234;2022-11-14T04:00:20;96576.31;;;1.92;100.00
39555;BME280;25231;48.746;9.234;2022-11-14T04:02:46;96574.00;;;1.97;100.00
39555;BME280;25231;48.746;9.234;2022-11-14T04:05:12;96577.22;;;1.99;100.00
39555;BME280;25231;48.746;9.234;2022-11-14T04:07:37;96570.06;;;2.01;100.00
39555;BME280;25231;48.746;9.234;2022-11-14T04:10:03;96569.25;;;2.01;100.00
39555;BME280;25231;48.746;9.234;2022-11-14T04:12:28;96580.88;;;2.05;100.00
39555;BME280;25231;48.746;9.234;2022-11-14T04:14:54;96580.66;;;2.06;100.00
39555;BME280;25231;48.746;9.234;2022-11-14T04:17:19;96576.03;;;2.02;100.00
39555;BME280;25231;48.746;9.234;2022-11-14T04:19:44;96575.50;;;2.06;100.00
39555;BME280;25231;48.746;9.234;2022-11-14T04:22:10;96572.47;;;2.03;100.00
39555;BME280;25231;48.746;9.234;2022-11-14T04:24:35;96568.28;;;2.02;100.00
39555;BME280;25231;48.746;9.234;2022-11-14T04:27:00;96566.66;;;2.01;100.00
39555;BME280;25231;48.746;9.234;2022-11-14T04:29:26;96554.38;;;2.03;100.00
39555;BME280;25231;48.746;9.234;2022-11-14T04:31:51;96559.19;;;1.91;100.00
39555;BME280;25231;48.746;9.234;2022-11-14T04:34:16;96557.84;;;1.95;100.00
39555;BME280;25231;48.746;9.234;2022-11-14T04:36:42;96546.47;;;2.04;100.00
39555;BME280;25231;48.746;9.234;2022-11-14T04:39:07;96543.34;;;2.09;100.00
39555;BME280;25231;48.746;9.234;2022-11-14T04:41:32;96536.72;;;2.06;100.00
39555;BME280;25231;48.746;9.234;2022-11-14T04:43:58;96535.75;;;2.07;100.00
39555;BME280;25231;48.746;9.234;2022-11-14T04:46:23;96544.69;;;2.05;100.00
39555;BME280;25231;48.746;9.234;2022-11-14T04:48:48;96554.31;;;2.11;100.00
39555;BME280;25231;48.746;9.234;2022-11-14T04:51:14;96546.81;;;2.16;100.00
39555;BME280;25231;48.746;9.234;2022-11-14T04:53:39;96547.41;;;2.18;100.00
39555;BME280;25231;48.746;9.234;2022-11-14T04:56:04;96544.03;;;2.18;100.00
39555;BME280;25231;48.746;9.234;2022-11-14T04:58:30;96528.00;;;2.22;100.00
39555;BME280;25231;48.746;9.234;2022-11-14T05:00:55;96512.56;;;2.14;100.00
39555;BME280;25231;48.746;9.234;2022-11-14T05:03:22;96524.88;;;2.12;100.00
39555;BME280;25231;48.746;9.234;2022-11-14T05:05:47;96512.66;;;2.21;100.00
39555;BME280;25231;48.746;9.234;2022-11-14T05:08:13;96516.38;;;2.18;100.00
39555;BME280;25231;48.746;9.234;2022-11-14T05:10:41;96512.47;;;2.22;100.00
39555;BME280;25231;48.746;9.234;2022-11-14T05:13:07;96516.00;;;2.36;100.00
39555;BME280;25231;48.746;9.234;2022-11-14T05:15:32;96516.72;;;2.30;100.00
39555;BME280;25231;48.746;9.234;2022-11-14T05:17:58;96517.19;;;2.33;100.00
39555;BME280;25231;48.746;9.234;2022-11-14T05:20:23;96521.09;;;2.44;100.00
39555;BME280;25231;48.746;9.234;2022-11-14T05:22:52;96515.53;;;2.47;100.00
39555;BME280;25231;48.746;9.234;2022-11-14T05:25:18;96513.06;;;2.39;100.00
39555;BME280;25231;48.746;9.234;2022-11-14T05:27:43;96505.31;;;2.39;100.00
39555;BME280;25231;48.746;9.234;2022-11-14T05:30:09;96508.59;;;2.47;100.00
39555;BME280;25231;48.746;9.234;2022-11-14T05:32:34;96506.56;;;2.43;100.00
39555;BME280;25231;48.746;9.234;2022-11-14T05:35:00;96507.59;;;2.48;100.00
39555;BME280;25231;48.746;9.234;2022-11-14T05:37:25;96505.38;;;2.45;100.00
39555;BME280;25231;48.746;9.234;2022-11-14T05:39:50;96504.03;;;2.49;100.00
39555;BME280;25231;48.746;9.234;2022-11-14T05:42:16;96499.78;;;2.42;100.00
39555;BME280;25231;48.746;9.234;2022-11-14T05:44:41;96503.84;;;2.51;100.00
39555;BME280;25231;48.746;9.234;2022-11-14T05:47:06;96516.75;;;2.51;100.00
39555;BME280;25231;48.746;9.234;2022-11-14T05:49:32;96506.81;;;2.48;100.00
39555;BME280;25231;48.746;9.234;2022-11-14T05:51:57;96501.44;;;2.49;100.00
39555;BME280;25231;48.746;9.234;2022-11-14T05:54:22;96498.41;;;2.46;100.00
39555;BME280;25231;48.746;9.234;2022-11-14T05:56:48;96506.50;;;2.58;100.00
39555;BME280;25231;48.746;9.234;2022-11-14T05:59:13;96508.97;;;2.66;100.00
39555;BME280;25231;48.746;9.234;2022-11-14T06:01:38;96514.72;;;2.61;100.00
39555;BME280;25231;48.746;9.234;2022-11-14T06:04:04;96522.91;;;2.65;100.00
39555;BME280;25231;48.746;9.234;2022-11-14T06:06:30;96519.81;;;2.76;100.00
39555;BME280;25231;48.746;9.234;2022-11-14T06:08:55;96523.94;;;2.70;100.00
39555;BME280;25231;48.746;9.234;2022-11-14T06:11:21;96525.19;;;2.74;100.00
39555;BME280;25231;48.746;9.234;2022-11-14T06:13:47;96523.28;;;2.83;100.00
39555;BME280;25231;48.746;9.234;2022-11-14T06:16:15;96528.78;;;2.95;100.00
39555;BME280;25231;48.746;9.234;2022-11-14T06:18:41;96530.41;;;3.02;100.00
39555;BME280;25231;48.746;9.234;2022-11-14T06:21:18;96518.91;;;3.05;100.00
39555;BME280;25231;48.746;9.234;2022-11-14T06:23:44;96527.28;;;3.07;100.00
39555;BME280;25231;48.746;9.234;2022-11-14T06:26:21;96526.25;;;3.29;100.00
39555;BME280;25231;48.746;9.234;2022-11-14T06:28:48;96521.28;;;3.27;100.00
39555;BME280;25231;48.746;9.234;2022-11-14T06:31:13;96526.47;;;3.27;100.00
39555;BME280;25231;48.746;9.234;2022-11-14T06:33:39;96527.63;;;3.25;100.00
39555;BME280;25231;48.746;9.234;2022-11-14T06:36:06;96527.81;;;3.23;100.00
39555;BME280;25231;48.746;9.234;2022-11-14T06:38:33;96523.78;;;3.42;100.00
39555;BME280;25231;48.746;9.234;2022-11-14T06:41:07;96532.19;;;3.44;100.00
39555;BME280;25231;48.746;9.234;2022-11-14T06:43:34;96515.78;;;3.65;100.00
39555;BME280;25231;48.746;9.234;2022-11-14T06:46:01;96528.38;;;3.74;100.00
39555;BME280;25231;48.746;9.234;2022-11-14T06:48:27;96526.06;;;3.86;100.00
39555;BME280;25231;48.746;9.234;2022-11-14T06:50:53;96535.31;;;3.95;100.00
39555;BME280;25231;48.746;9.234;2022-11-14T06:53:19;96538.13;;;4.07;100.00
39555;BME280;25231;48.746;9.234;2022-11-14T06:56:00;96533.22;;;4.18;100.00
39555;BME280;25231;48.746;9.234;2022-11-14T06:58:27;96522.84;;;4.18;100.00
39555;BME280;25231;48.746;9.234;2022-11-14T07:00:53;96526.41;;;4.11;100.00
39555;BME280;25231;48.746;9.234;2022-11-14T07:03:18;96520.25;;;4.12;100.00
39555;BME280;25231;48.746;9.234;2022-11-14T07:05:43;96526.66;;;4.23;100.00
39555;BME280;25231;48.746;9.234;2022-11-14T07:08:09;96512.28;;;4.20;100.00
39555;BME280;25231;48.746;9.234;2022-11-14T07:10:34;96527.47;;;4.30;100.00
39555;BME280;25231;48.746;9.234;2022-11-14T07:12:59;96533.53;;;4.43;100.00
39555;BME280;25231;48.746;9.234;2022-11-14T07:15:25;96521.56;;;4.49;100.00
39555;BME280;25231;48.746;9.234;2022-11-14T07:17:50;96523.78;;;4.45;100.00
39555;BME280;25231;48.746;9.234;2022-11-14T07:20:15;96525.34;;;4.46;100.00
39555;BME280;25231;48.746;9.234;2022-11-14T07:22:44;96528.75;;;4.47;100.00
39555;BME280;25231;48.746;9.234;2022-11-14T07:25:10;96531.72;;;4.37;100.00
39555;BME280;25231;48.746;9.234;2022-11-14T07:27:35;96523.56;;;4.47;100.00
39555;BME280;25231;48.746;9.234;2022-11-14T07:30:00;96527.06;;;4.87;100.00
39555;BME280;25231;48.746;9.234;2022-11-14T07:32:26;96519.69;;;4.84;100.00
39555;BME280;25231;48.746;9.234;2022-11-14T07:34:51;96519.41;;;4.59;100.00
39555;BME280;25231;48.746;9.234;2022-11-14T07:37:16;96523.38;;;4.48;100.00
39555;BME280;25231;48.746;9.234;2022-11-14T07:39:42;96528.16;;;4.45;100.00
39555;BME280;25231;48.746;9.234;2022-11-14T07:42:07;96534.31;;;4.37;100.00
39555;BME280;25231;48.746;9.234;2022-11-14T07:44:33;96541.47;;;4.29;100.00
39555;BME280;25231;48.746;9.234;2022-11-14T07:46:58;96545.09;;;4.41;100.00
39555;BME280;25231;48.746;9.234;2022-11-14T07:49:23;96548.31;;;4.49;100.00
39555;BME280;25231;48.746;9.234;2022-11-14T07:51:48;96554.91;;;4.52;100.00
39555;BME280;25231;48.746;9.234;2022-11-14T07:54:14;96551.34;;;4.59;100.00
39555;BME280;25231;48.746;9.234;2022-11-14T07:56:39;96555.75;;;4.66;100.00
39555;BME280;25231;48.746;9.234;2022-11-14T07:59:04;96553.78;;;4.74;100.00
39555;BME280;25231;48.746;9.234;2022-11-14T08:01:30;96556.19;;;4.76;100.00
39555;BME280;25231;48.746;9.234;2022-11-14T08:03:55;96564.81;;;4.89;100.00
39555;BME280;25231;48.746;9.234;2022-11-14T08:06:21;96574.03;;;4.98;100.00
39555;BME280;25231;48.746;9.234;2022-11-14T08:08:46;96580.03;;;4.99;100.00
39555;BME280;25231;48.746;9.234;2022-11-14T08:11:11;96582.81;;;4.97;100.00
39555;BME280;25231;48.746;9.234;2022-11-14T08:13:37;96584.97;;;4.87;100.00
39555;BME280;25231;48.746;9.234;2022-11-14T08:16:07;96591.53;;;4.77;100.00
39555;BME280;25231;48.746;9.234;2022-11-14T08:18:33;96586.16;;;4.78;100.00
39555;BME280;25231;48.746;9.234;2022-11-14T08:21:02;96589.53;;;4.72;100.00
39555;BME280;25231;48.746;9.234;2022-11-14T08:23:28;96597.34;;;4.85;100.00
39555;BME280;25231;48.746;9.234;2022-11-14T08:25:53;96603.41;;;4.99;100.00
39555;BME280;25231;48.746;9.234;2022-11-14T08:28:18;96603.00;;;5.09;100.00
39555;BME280;25231;48.746;9.234;2022-11-14T08:30:44;96612.44;;;5.16;100.00
39555;BME280;25231;48.746;9.234;2022-11-14T08:33:09;96605.03;;;5.20;100.00
39555;BME280;25231;48.746;9.234;2022-11-14T08:35:35;96607.25;;;5.16;100.00
39555;BME280;25231;48.746;9.234;2022-11-14T08:38:01;96605.06;;;5.26;100.00
39555;BME280;25231;48.746;9.234;2022-11-14T08:40:27;96610.22;;;5.20;100.00
39555;BME280;25231;48.746;9.234;2022-11-14T08:42:57;96614.06;;;5.24;100.00
39555;BME280;25231;48.746;9.234;2022-11-14T08:45:23;96603.09;;;5.35;100.00
39555;BME280;25231;48.746;9.234;2022-11-14T08:47:52;96616.28;;;5.40;100.00
39555;BME280;25231;48.746;9.234;2022-11-14T08:50:18;96618.09;;;5.46;100.00
39555;BME280;25231;48.746;9.234;2022-11-14T08:52:48;96629.88;;;5.55;100.00
39555;BME280;25231;48.746;9.234;2022-11-14T08:55:14;96632.09;;;5.71;100.00
39555;BME280;25231;48.746;9.234;2022-11-14T08:57:39;96621.72;;;5.91;100.00
39555;BME280;25231;48.746;9.234;2022-11-14T09:00:05;96625.31;;;6.03;100.00
39555;BME280;25231;48.746;9.234;2022-11-14T09:02:30;96611.91;;;6.13;100.00
39555;BME280;25231;48.746;9.234;2022-11-14T09:04:56;96612.47;;;6.28;100.00
39555;BME280;25231;48.746;9.234;2022-11-14T09:07:21;96615.25;;;6.33;100.00
39555;BME280;25231;48.746;9.234;2022-11-14T09:09:46;96619.06;;;6.37;100.00
39555;BME280;25231;48.746;9.234;2022-11-14T09:12:12;96618.66;;;6.40;100.00
39555;BME280;25231;48.746;9.234;2022-11-14T09:14:38;96625.63;;;6.53;100.00
39555;BME280;25231;48.746;9.234;2022-11-14T09:17:03;96620.81;;;6.50;100.00
39555;BME280;25231;48.746;9.234;2022-11-14T09:19:28;96620.81;;;6.50;100.00
39555;BME280;25231;48.746;9.234;2022-11-14T09:21:54;96612.22;;;6.49;100.00
39555;BME280;25231;48.746;9.234;2022-11-14T09:24:19;96606.81;;;6.51;100.00
39555;BME280;25231;48.746;9.234;2022-11-14T09:26:44;96602.41;;;6.51;100.00
39555;BME280;25231;48.746;9.234;2022-11-14T09:29:10;96614.38;;;6.59;100.00
39555;BME280;25231;48.746;9.234;2022-11-14T09:31:35;96608.78;;;6.62;100.00
39555;BME280;25231;48.746;9.234;2022-11-14T09:34:00;96603.31;;;6.70;100.00
39555;BME280;25231;48.746;9.234;2022-11-14T09:36:26;96612.34;;;6.74;100.00
39555;BME280;25231;48.746;9.234;2022-11-14T09:38:51;96605.50;;;6.80;100.00
39555;BME280;25231;48.746;9.234;2022-11-14T09:46:33;96593.81;;;6.95;100.00
39555;BME280;25231;48.746;9.234;2022-11-14T09:49:01;96588.56;;;7.02;100.00
39555;BME280;25231;48.746;9.234;2022-11-14T09:51:44;96588.00;;;6.93;100.00
39555;BME280;25231;48.746;9.234;2022-11-14T09:54:18;96594.38;;;6.97;100.00
39555;BME280;25231;48.746;9.234;2022-11-14T09:56:45;96578.34;;;7.00;100.00
39555;BME280;25231;48.746;9.234;2022-11-14T09:59:11;96572.34;;;7.00;100.00
39555;BME280;25231;48.746;9.234;2022-11-14T10:10:31;96583.75;;;7.30;100.00
39555;BME280;25231;48.746;9.234;2022-11-14T10:13:22;96574.25;;;7.42;100.00
39555;BME280;25231;48.746;9.234;2022-11-14T10:16:17;96573.72;;;7.59;100.00
39555;BME280;25231;48.746;9.234;2022-11-14T10:26:37;96578.06;;;7.96;100.00
39555;BME280;25231;48.746;9.234;2022-11-14T10:32:57;96572.03;;;7.96;100.00
39555;BME280;25231;48.746;9.234;2022-11-14T10:38:08;96579.22;;;8.00;100.00
39555;BME280;25231;48.746;9.234;2022-11-14T10:40:49;96588.72;;;8.13;100.00
39555;BME280;25231;48.746;9.234;2022-11-14T10:43:31;96592.16;;;8.13;100.00
39555;BME280;25231;48.746;9.234;2022-11-14T10:46:29;96585.25;;;8.19;100.00
39555;BME280;25231;48.746;9.234;2022-11-14T10:48:58;96578.78;;;8.21;100.00
39555;BME280;25231;48.746;9.234;2022-11-14T10:51:34;96577.03;;;8.40;100.00
39555;BME280;25231;48.746;9.234;2022-11-14T10:54:05;96583.56;;;8.49;100.00
39555;BME280;25231;48.746;9.234;2022-11-14T10:56:45;96579.47;;;8.53;100.00
39555;BME280;25231;48.746;9.234;2022-11-14T10:59:11;96584.41;;;8.43;100.00
39555;BME280;25231;48.746;9.234;2022-11-14T11:01:37;96583.69;;;8.54;100.00
39555;BME280;25231;48.746;9.234;2022-11-14T11:06:40;96582.69;;;8.55;100.00
39555;BME280;25231;48.746;9.234;2022-11-14T11:09:08;96576.06;;;8.71;100.00
39555;BME280;25231;48.746;9.234;2022-11-14T11:11:59;96575.50;;;8.99;100.00
39555;BME280;25231;48.746;9.234;2022-11-14T11:14:28;96559.56;;;9.18;100.00
39555;BME280;25231;48.746;9.234;2022-11-14T11:17:21;96561.81;;;9.15;100.00
39555;BME280;25231;48.746;9.234;2022-11-14T11:19:47;96557.28;;;9.22;100.00
39555;BME280;25231;48.746;9.234;2022-11-14T11:22:25;96559.03;;;9.40;100.00
39555;BME280;25231;48.746;9.234;2022-11-14T11:24:51;96564.75;;;9.60;100.00
39555;BME280;25231;48.746;9.234;2022-11-14T11:27:23;96552.72;;;9.71;100.00
39555;BME280;25231;48.746;9.234;2022-11-14T11:30:07;96552.81;;;9.76;100.00
39555;BME280;25231;48.746;9.234;2022-11-14T11:32:33;96548.28;;;9.71;100.00
39555;BME280;25231;48.746;9.234;2022-11-14T11:35:01;96551.56;;;9.67;100.00
39555;BME280;25231;48.746;9.234;2022-11-14T11:37:53;96558.44;;;9.79;100.00
39555;BME280;25231;48.746;9.234;2022-11-14T11:40:25;96558.44;;;9.91;100.00
39555;BME280;25231;48.746;9.234;2022-11-14T11:43:09;96562.88;;;10.14;100.00
39555;BME280;25231;48.746;9.234;2022-11-14T11:45:37;96567.63;;;10.05;100.00
39555;BME280;25231;48.746;9.234;2022-11-14T11:48:18;96552.25;;;10.09;100.00
39555;BME280;25231;48.746;9.234;2022-11-14T11:50:44;96557.97;;;10.06;100.00
39555;BME280;25231;48.746;9.234;2022-11-14T11:53:23;96555.81;;;10.02;100.00
39555;BME280;25231;48.746;9.234;2022-11-14T11:55:57;96565.50;;;10.02;100.00
39555;BME280;25231;48.746;9.234;2022-11-14T11:58:32;96560.69;;;9.99;100.00
39555;BME280;25231;48.746;9.234;2022-11-14T12:01:01;96552.03;;;9.87;100.00
39555;BME280;25231;48.746;9.234;2022-11-14T12:03:26;96559.09;;;9.86;100.00
39555;BME280;25231;48.746;9.234;2022-11-14T12:08:25;96550.34;;;9.69;100.00
39555;BME280;25231;48.746;9.234;2022-11-14T12:10:55;96551.91;;;9.70;100.00
39555;BME280;25231;48.746;9.234;2022-11-14T12:16:34;96553.88;;;9.63;100.00
39555;BME280;25231;48.746;9.234;2022-11-14T12:19:31;96549.56;;;9.80;100.00
39555;BME280;25231;48.746;9.234;2022-11-14T12:22:24;96545.78;;;9.99;100.00
39555;BME280;25231;48.746;9.234;2022-11-14T12:30:18;96545.91;;;10.16;100.00
39555;BME280;25231;48.746;9.234;2022-11-14T12:33:03;96539.19;;;10.20;100.00
39555;BME280;25231;48.746;9.234;2022-11-14T12:35:33;96538.59;;;10.41;100.00
39555;BME280;25231;48.746;9.234;2022-11-14T12:38:02;96544.56;;;10.65;100.00
39555;BME280;25231;48.746;9.234;2022-11-14T12:40:38;96536.22;;;10.80;100.00
39555;BME280;25231;48.746;9.234;2022-11-14T12:43:30;96531.16;;;10.90;100.00
39555;BME280;25231;48.746;9.234;2022-11-14T12:45:59;96527.69;;;10.73;100.00
39555;BME280;25231;48.746;9.234;2022-11-14T12:50:53;96544.75;;;10.47;100.00
39555;BME280;25231;48.746;9.234;2022-11-14T13:11:43;96526.09;;;11.00;100.00
39555;BME280;25231;48.746;9.234;2022-11-14T13:14:29;96524.34;;;11.06;100.00
39555;BME280;25231;48.746;9.234;2022-11-14T13:20:32;96530.22;;;10.96;100.00
39555;BME280;25231;48.746;9.234;2022-11-14T13:28:47;96517.38;;;10.83;100.00
39555;BME280;25231;48.746;9.234;2022-11-14T13:33:58;96512.56;;;10.92;100.00
39555;BME280;25231;48.746;9.234;2022-11-14T13:36:34;96512.41;;;10.98;100.00
39555;BME280;25231;48.746;9.234;2022-11-14T13:39:12;96502.97;;;10.97;100.00
39555;BME280;25231;48.746;9.234;2022-11-14T13:41:58;96510.22;;;11.07;100.00
39555;BME280;25231;48.746;9.234;2022-11-14T13:50:00;96507.28;;;11.20;100.00
39555;BME280;25231;48.746;9.234;2022-11-14T13:52:31;96504.34;;;11.16;100.00
39555;BME280;25231;48.746;9.234;2022-11-14T13:54:57;96518.06;;;11.07;100.00
39555;BME280;25231;48.746;9.234;2022-11-14T14:02:58;96513.13;;;11.10;100.00
39555;BME280;25231;48.746;9.234;2022-11-14T14:11:02;96513.72;;;11.12;100.00
39555;BME280;25231;48.746;9.234;2022-11-14T14:16:31;96512.69;;;11.13;100.00
39555;BME280;25231;48.746;9.234;2022-11-14T14:29:27;96501.22;;;11.03;100.00
39555;BME280;25231;48.746;9.234;2022-11-14T14:32:06;96501.22;;;11.03;100.00
39555;BME280;25231;48.746;9.234;2022-11-14T14:34:34;96506.69;;;11.01;100.00
39555;BME280;25231;48.746;9.234;2022-11-14T14:37:00;96505.50;;;10.92;100.00
39555;BME280;25231;48.746;9.234;2022-11-14T14:39:27;96510.84;;;10.97;100.00
39555;BME280;25231;48.746;9.234;2022-11-14T14:41:57;96505.63;;;10.86;100.00
39555;BME280;25231;48.746;9.234;2022-11-14T14:44:29;96507.63;;;10.95;100.00
39555;BME280;25231;48.746;9.234;2022-11-14T14:46:56;96500.00;;;10.94;100.00
39555;BME280;25231;48.746;9.234;2022-11-14T14:49:26;96509.38;;;10.90;100.00
39555;BME280;25231;48.746;9.234;2022-11-14T14:51:52;96509.19;;;10.79;100.00